sensor_id;sensor_type;location;lat;lon;timestamp;temperature;humidity
18876;DHT22;9570;50.854;13.778;2023-07-31T00:01:02;15.70;99.90
18876;DHT22;9570;50.854;13.778;2023-07-31T00:03:28;15.70;99.90
18876;DHT22;9570;50.854;13.778;2023-07-31T00:05:53;15.70;99.90
18876;DHT22;9570;50.854;13.778;2023-07-31T00:08:19;15.50;99.90
18876;DHT22;9570;50.854;13.778;2023-07-31T00:10:44;15.60;99.90
18876;DHT22;9570;50.854;13.778;2023-07-31T00:13:10;15.60;99.90
18876;DHT22;9570;50.854;13.778;2023-07-31T00:15:35;15.60;99.90
18876;DHT22;9570;50.854;13.778;2023-07-31T00:18:01;15.60;99.90
18876;DHT22;9570;50.854;13.778;2023-07-31T00:20:26;15.50;99.90
18876;DHT22;9570;50.854;13.778;2023-07-31T00:22:52;15.40;99.90
18876;DHT22;9570;50.854;13.778;2023-07-31T00:25:17;15.30;99.90
18876;DHT22;9570;50.854;13.778;2023-07-31T00:27:43;15.40;99.90
18876;DHT22;9570;50.854;13.778;2023-07-31T00:30:10;15.40;99.90
18876;DHT22;9570;50.854;13.778;2023-07-31T00:32:36;15.40;99.90
18876;DHT22;9570;50.854;13.778;2023-07-31T00:35:01;15.30;99.90
18876;DHT22;9570;50.854;13.778;2023-07-31T00:37:27;15.20;99.90
18876;DHT22;9570;50.854;13.778;2023-07-31T00:39:52;15.20;99.90
18876;DHT22;9570;50.854;13.778;2023-07-31T00:42:18;15.20;99.90
18876;DHT22;9570;50.854;13.778;2023-07-31T00:44:43;15.30;99.90
18876;DHT22;9570;50.854;13.778;2023-07-31T00:47:09;15.30;99.90
18876;DHT22;9570;50.854;13.778;2023-07-31T00:49:34;15.40;99.90
18876;DHT22;9570;50.854;13.778;2023-07-31T00:52:00;15.40;99.90
18876;DHT22;9570;50.854;13.778;2023-07-31T00:54:27;15.50;99.90
18876;DHT22;9570;50.854;13.778;2023-07-31T00:56:54;15.60;99.90
18876;DHT22;9570;50.854;13.778;2023-07-31T00:59:20;15.60;99.90
18876;DHT22;9570;50.854;13.778;2023-07-31T01:01:46;15.60;99.90
18876;DHT22;9570;50.854;13.778;2023-07-31T01:04:12;15.60;99.90
18876;DHT22;9570;50.854;13.778;2023-07-31T01:06:52;15.50;99.90
18876;DHT22;9570;50.854;13.778;2023-07-31T01:09:36;15.50;99.90
18876;DHT22;9570;50.854;13.778;2023-07-31T01:12:03;15.50;99.90
18876;DHT22;9570;50.854;13.778;2023-07-31T01:14:29;15.50;99.90
18876;DHT22;9570;50.854;13.778;2023-07-31T01:16:55;15.50;99.90
18876;DHT22;9570;50.854;13.778;2023-07-31T01:19:25;15.50;99.90
18876;DHT22;9570;50.854;13.778;2023-07-31T01:24:59;15.50;99.90
18876;DHT22;9570;50.854;13.778;2023-07-31T01:27:38;15.40;99.90
18876;DHT22;9570;50.854;13.778;2023-07-31T01:30:11;15.40;99.90
18876;DHT22;9570;50.854;13.778;2023-07-31T01:32:40;15.50;99.90
18876;DHT22;9570;50.854;13.778;2023-07-31T01:35:07;15.50;99.90
18876;DHT22;9570;50.854;13.778;2023-07-31T01:37:33;15.50;99.90
18876;DHT22;9570;50.854;13.778;2023-07-31T01:39:59;15.40;99.90
18876;DHT22;9570;50.854;13.778;2023-07-31T01:42:24;15.50;99.90
18876;DHT22;9570;50.854;13.778;2023-07-31T01:44:50;15.50;99.90
18876;DHT22;9570;50.854;13.778;2023-07-31T01:47:15;15.50;99.90
18876;DHT22;9570;50.854;13.778;2023-07-31T01:49:41;15.50;99.90
18876;DHT22;9570;50.854;13.778;2023-07-31T01:52:07;15.50;99.90
18876;DHT22;9570;50.854;13.778;2023-07-31T01:54:32;15.50;99.90
18876;DHT22;9570;50.854;13.778;2023-07-31T01:56:58;15.50;99.90
18876;DHT22;9570;50.854;13.778;2023-07-31T01:59:24;15.40;99.90
18876;DHT22;9570;50.854;13.778;2023-07-31T02:01:49;15.40;99.90
18876;DHT22;9570;50.854;13.778;2023-07-31T02:04:15;15.50;99.90
18876;DHT22;9570;50.854;13.778;2023-07-31T02:06:40;15.50;99.90
18876;DHT22;9570;50.854;13.778;2023-07-31T02:09:06;15.50;99.90
18876;DHT22;9570;50.854;13.778;2023-07-31T02:11:31;15.50;99.90
18876;DHT22;9570;50.854;13.778;2023-07-31T02:13:57;15.50;99.90
18876;DHT22;9570;50.854;13.778;2023-07-31T02:16:22;15.40;99.90
18876;DHT22;9570;50.854;13.778;2023-07-31T02:18:48;15.50;99.90
18876;DHT22;9570;50.854;13.778;2023-07-31T02:21:13;15.60;99.90
18876;DHT22;9570;50.854;13.778;2023-07-31T02:23:39;15.50;99.90
18876;DHT22;9570;50.854;13.778;2023-07-31T02:26:04;15.60;99.90
18876;DHT22;9570;50.854;13.778;2023-07-31T02:28:30;15.70;99.90
18876;DHT22;9570;50.854;13.778;2023-07-31T02:30:55;15.80;99.90
18876;DHT22;9570;50.854;13.778;2023-07-31T02:33:21;15.80;99.90
18876;DHT22;9570;50.854;13.778;2023-07-31T02:35:46;15.90;99.90
18876;DHT22;9570;50.854;13.778;2023-07-31T02:38:12;15.80;99.90
18876;DHT22;9570;50.854;13.778;2023-07-31T02:40:38;15.80;99.90
18876;DHT22;9570;50.854;13.778;2023-07-31T02:43:04;15.80;99.90
18876;DHT22;9570;50.854;13.778;2023-07-31T02:45:29;15.80;99.90
18876;DHT22;9570;50.854;13.778;2023-07-31T02:47:55;15.80;99.90
18876;DHT22;9570;50.854;13.778;2023-07-31T02:50:20;15.90;99.90
18876;DHT22;9570;50.854;13.778;2023-07-31T02:52:46;15.80;99.90
18876;DHT22;9570;50.854;13.778;2023-07-31T02:55:11;15.80;99.90
18876;DHT22;9570;50.854;13.778;2023-07-31T02:57:37;15.90;99.90
18876;DHT22;9570;50.854;13.778;2023-07-31T03:00:02;15.90;99.90
18876;DHT22;9570;50.854;13.778;2023-07-31T03:02:31;16.00;99.90
18876;DHT22;9570;50.854;13.778;2023-07-31T03:04:56;16.00;99.90
18876;DHT22;9570;50.854;13.778;2023-07-31T03:07:22;16.00;99.90
18876;DHT22;9570;50.854;13.778;2023-07-31T03:09:47;16.10;99.90
18876;DHT22;9570;50.854;13.778;2023-07-31T03:12:13;16.20;99.90
18876;DHT22;9570;50.854;13.778;2023-07-31T03:14:38;16.20;99.90
18876;DHT22;9570;50.854;13.778;2023-07-31T03:17:04;16.20;99.90
18876;DHT22;9570;50.854;13.778;2023-07-31T03:19:32;16.20;99.90
18876;DHT22;9570;50.854;13.778;2023-07-31T03:21:59;16.30;99.90
18876;DHT22;9570;50.854;13.778;2023-07-31T03:24:25;16.20;99.90
18876;DHT22;9570;50.854;13.778;2023-07-31T03:26:50;16.20;99.90
18876;DHT22;9570;50.854;13.778;2023-07-31T03:29:16;16.20;99.90
18876;DHT22;9570;50.854;13.778;2023-07-31T03:31:41;16.30;99.90
18876;DHT22;9570;50.854;13.778;2023-07-31T03:34:07;16.20;99.90
18876;DHT22;9570;50.854;13.778;2023-07-31T03:36:32;16.30;99.90
18876;DHT22;9570;50.854;13.778;2023-07-31T03:38:58;16.30;99.90
18876;DHT22;9570;50.854;13.778;2023-07-31T03:41:23;16.40;99.90
18876;DHT22;9570;50.854;13.778;2023-07-31T03:43:50;16.40;99.90
18876;DHT22;9570;50.854;13.778;2023-07-31T03:46:21;16.50;99.90
18876;DHT22;9570;50.854;13.778;2023-07-31T03:48:47;16.50;99.90
18876;DHT22;9570;50.854;13.778;2023-07-31T03:51:13;16.50;99.90
18876;DHT22;9570;50.854;13.778;2023-07-31T03:53:38;16.40;99.90
18876;DHT22;9570;50.854;13.778;2023-07-31T03:56:04;16.50;99.90
18876;DHT22;9570;50.854;13.778;2023-07-31T03:58:29;16.30;99.90
18876;DHT22;9570;50.854;13.778;2023-07-31T04:00:55;16.10;99.90
18876;DHT22;9570;50.854;13.778;2023-07-31T04:03:20;15.80;99.90
18876;DHT22;9570;50.854;13.778;2023-07-31T04:05:46;15.70;99.90
18876;DHT22;9570;50.854;13.778;2023-07-31T04:08:11;15.60;99.90
18876;DHT22;9570;50.854;13.778;2023-07-31T04:10:37;15.50;99.90
18876;DHT22;9570;50.854;13.778;2023-07-31T04:13:02;15.50;99.90
18876;DHT22;9570;50.854;13.778;2023-07-31T04:15:28;15.40;99.90
18876;DHT22;9570;50.854;13.778;2023-07-31T04:17:53;15.40;99.90
18876;DHT22;9570;50.854;13.778;2023-07-31T04:20:19;15.30;99.90
18876;DHT22;9570;50.854;13.778;2023-07-31T04:22:44;15.20;99.90
18876;DHT22;9570;50.854;13.778;2023-07-31T04:25:10;15.20;99.90
18876;DHT22;9570;50.854;13.778;2023-07-31T04:27:35;15.20;99.90
18876;DHT22;9570;50.854;13.778;2023-07-31T04:30:01;15.30;99.90
18876;DHT22;9570;50.854;13.778;2023-07-31T04:32:26;15.30;99.90
18876;DHT22;9570;50.854;13.778;2023-07-31T04:34:52;15.30;99.90
18876;DHT22;9570;50.854;13.778;2023-07-31T04:37:17;15.20;99.90
18876;DHT22;9570;50.854;13.778;2023-07-31T04:39:43;15.20;99.90
18876;DHT22;9570;50.854;13.778;2023-07-31T04:42:08;15.30;99.90
18876;DHT22;9570;50.854;13.778;2023-07-31T04:44:34;15.30;99.90
18876;DHT22;9570;50.854;13.778;2023-07-31T04:47:00;15.50;99.90
18876;DHT22;9570;50.854;13.778;2023-07-31T04:49:25;15.60;99.90
18876;DHT22;9570;50.854;13.778;2023-07-31T04:51:51;15.60;99.90
18876;DHT22;9570;50.854;13.778;2023-07-31T04:54:16;15.50;99.90
18876;DHT22;9570;50.854;13.778;2023-07-31T04:56:42;15.50;99.90
18876;DHT22;9570;50.854;13.778;2023-07-31T04:59:07;15.50;99.90
18876;DHT22;9570;50.854;13.778;2023-07-31T05:01:33;15.50;99.90
18876;DHT22;9570;50.854;13.778;2023-07-31T05:03:58;15.50;99.90
18876;DHT22;9570;50.854;13.778;2023-07-31T05:06:24;15.40;99.90
18876;DHT22;9570;50.854;13.778;2023-07-31T05:08:49;15.50;99.90
18876;DHT22;9570;50.854;13.778;2023-07-31T05:11:15;15.50;99.90
18876;DHT22;9570;50.854;13.778;2023-07-31T05:13:40;15.50;99.90
18876;DHT22;9570;50.854;13.778;2023-07-31T05:16:06;15.50;99.90
18876;DHT22;9570;50.854;13.778;2023-07-31T05:18:31;15.50;99.90
18876;DHT22;9570;50.854;13.778;2023-07-31T05:20:57;15.60;99.90
18876;DHT22;9570;50.854;13.778;2023-07-31T05:23:22;15.60;99.90
18876;DHT22;9570;50.854;13.778;2023-07-31T05:25:48;15.70;99.90
18876;DHT22;9570;50.854;13.778;2023-07-31T05:28:13;15.70;99.90
18876;DHT22;9570;50.854;13.778;2023-07-31T05:30:39;15.80;99.90
18876;DHT22;9570;50.854;13.778;2023-07-31T05:33:04;15.80;99.90
18876;DHT22;9570;50.854;13.778;2023-07-31T05:35:30;15.70;99.90
18876;DHT22;9570;50.854;13.778;2023-07-31T05:37:55;15.80;99.90
18876;DHT22;9570;50.854;13.778;2023-07-31T05:40:21;15.80;99.90
18876;DHT22;9570;50.854;13.778;2023-07-31T05:42:46;15.80;99.90
18876;DHT22;9570;50.854;13.778;2023-07-31T05:45:12;15.90;99.90
18876;DHT22;9570;50.854;13.778;2023-07-31T05:47:39;15.90;99.90
18876;DHT22;9570;50.854;13.778;2023-07-31T05:50:04;15.90;99.90
18876;DHT22;9570;50.854;13.778;2023-07-31T05:52:30;16.00;99.90
18876;DHT22;9570;50.854;13.778;2023-07-31T05:54:56;16.00;99.90
18876;DHT22;9570;50.854;13.778;2023-07-31T05:57:21;16.00;99.90
18876;DHT22;9570;50.854;13.778;2023-07-31T05:59:47;16.00;99.90
18876;DHT22;9570;50.854;13.778;2023-07-31T06:02:12;16.10;99.90
18876;DHT22;9570;50.854;13.778;2023-07-31T06:04:38;16.20;99.90
18876;DHT22;9570;50.854;13.778;2023-07-31T06:07:04;16.20;99.90
18876;DHT22;9570;50.854;13.778;2023-07-31T06:09:29;16.20;99.90
18876;DHT22;9570;50.854;13.778;2023-07-31T06:11:55;16.30;99.90
18876;DHT22;9570;50.854;13.778;2023-07-31T06:14:20;16.30;99.90
18876;DHT22;9570;50.854;13.778;2023-07-31T06:16:46;16.40;99.90
18876;DHT22;9570;50.854;13.778;2023-07-31T06:19:11;16.40;99.90
18876;DHT22;9570;50.854;13.778;2023-07-31T06:21:37;16.40;99.90
18876;DHT22;9570;50.854;13.778;2023-07-31T06:24:03;16.50;99.90
18876;DHT22;9570;50.854;13.778;2023-07-31T06:26:29;16.50;99.90
18876;DHT22;9570;50.854;13.778;2023-07-31T06:28:55;16.50;99.90
18876;DHT22;9570;50.854;13.778;2023-07-31T06:31:20;16.40;99.90
18876;DHT22;9570;50.854;13.778;2023-07-31T06:33:49;16.40;99.90
18876;DHT22;9570;50.854;13.778;2023-07-31T06:36:14;16.40;99.90
18876;DHT22;9570;50.854;13.778;2023-07-31T06:38:40;16.40;99.90
18876;DHT22;9570;50.854;13.778;2023-07-31T06:41:05;16.40;99.90
18876;DHT22;9570;50.854;13.778;2023-07-31T06:43:31;16.40;99.90
18876;DHT22;9570;50.854;13.778;2023-07-31T06:45:56;16.30;99.90
18876;DHT22;9570;50.854;13.778;2023-07-31T06:48:22;16.30;99.90
18876;DHT22;9570;50.854;13.778;2023-07-31T06:50:47;16.40;99.90
18876;DHT22;9570;50.854;13.778;2023-07-31T06:53:13;16.40;99.90
18876;DHT22;9570;50.854;13.778;2023-07-31T06:55:38;16.30;99.90
18876;DHT22;9570;50.854;13.778;2023-07-31T06:58:04;16.40;99.90
18876;DHT22;9570;50.854;13.778;2023-07-31T07:00:29;16.40;99.90
18876;DHT22;9570;50.854;13.778;2023-07-31T07:02:55;16.40;99.90
18876;DHT22;9570;50.854;13.778;2023-07-31T07:05:20;16.40;99.90
18876;DHT22;9570;50.854;13.778;2023-07-31T07:07:46;16.40;99.90
18876;DHT22;9570;50.854;13.778;2023-07-31T07:10:11;16.50;99.90
18876;DHT22;9570;50.854;13.778;2023-07-31T07:12:37;16.60;99.90
18876;DHT22;9570;50.854;13.778;2023-07-31T07:15:03;16.60;99.90
18876;DHT22;9570;50.854;13.778;2023-07-31T07:17:29;16.70;99.90
18876;DHT22;9570;50.854;13.778;2023-07-31T07:19:59;16.70;99.90
18876;DHT22;9570;50.854;13.778;2023-07-31T07:22:25;16.80;99.90
18876;DHT22;9570;50.854;13.778;2023-07-31T07:24:51;16.80;99.90
18876;DHT22;9570;50.854;13.778;2023-07-31T07:27:16;16.90;99.90
18876;DHT22;9570;50.854;13.778;2023-07-31T07:29:42;16.90;99.90
18876;DHT22;9570;50.854;13.778;2023-07-31T07:32:07;16.90;99.90
18876;DHT22;9570;50.854;13.778;2023-07-31T07:34:33;17.10;99.90
18876;DHT22;9570;50.854;13.778;2023-07-31T07:36:59;17.10;99.90
18876;DHT22;9570;50.854;13.778;2023-07-31T07:39:24;17.10;99.90
18876;DHT22;9570;50.854;13.778;2023-07-31T07:41:50;17.20;99.90
18876;DHT22;9570;50.854;13.778;2023-07-31T07:44:15;17.30;99.90
18876;DHT22;9570;50.854;13.778;2023-07-31T07:46:41;17.30;99.90
18876;DHT22;9570;50.854;13.778;2023-07-31T07:49:07;17.40;99.90
18876;DHT22;9570;50.854;13.778;2023-07-31T07:51:32;17.30;99.90
18876;DHT22;9570;50.854;13.778;2023-07-31T07:53:58;17.40;99.90
18876;DHT22;9570;50.854;13.778;2023-07-31T07:56:25;17.40;99.90
18876;DHT22;9570;50.854;13.778;2023-07-31T07:58:51;17.40;99.90
18876;DHT22;9570;50.854;13.778;2023-07-31T08:01:17;17.50;99.90
18876;DHT22;9570;50.854;13.778;2023-07-31T08:03:42;17.50;99.90
18876;DHT22;9570;50.854;13.778;2023-07-31T08:06:08;17.60;99.90
18876;DHT22;9570;50.854;13.778;2023-07-31T08:08:37;17.70;99.90
18876;DHT22;9570;50.854;13.778;2023-07-31T08:11:03;17.70;99.90
18876;DHT22;9570;50.854;13.778;2023-07-31T08:13:28;17.70;99.90
18876;DHT22;9570;50.854;13.778;2023-07-31T08:15:54;17.80;99.90
18876;DHT22;9570;50.854;13.778;2023-07-31T08:18:20;17.80;99.90
18876;DHT22;9570;50.854;13.778;2023-07-31T08:20:46;17.90;99.90
18876;DHT22;9570;50.854;13.778;2023-07-31T08:23:11;18.00;99.90
18876;DHT22;9570;50.854;13.778;2023-07-31T08:25:38;18.00;99.90
18876;DHT22;9570;50.854;13.778;2023-07-31T08:28:04;18.10;99.90
18876;DHT22;9570;50.854;13.778;2023-07-31T08:30:30;18.10;99.90
18876;DHT22;9570;50.854;13.778;2023-07-31T08:32:56;18.10;99.90
18876;DHT22;9570;50.854;13.778;2023-07-31T08:35:21;18.20;99.90
18876;DHT22;9570;50.854;13.778;2023-07-31T08:37:47;18.20;99.90
18876;DHT22;9570;50.854;13.778;2023-07-31T08:40:12;18.20;99.90
18876;DHT22;9570;50.854;13.778;2023-07-31T08:42:46;18.20;99.90
18876;DHT22;9570;50.854;13.778;2023-07-31T08:45:17;18.20;99.90
18876;DHT22;9570;50.854;13.778;2023-07-31T08:47:48;18.10;99.90
18876;DHT22;9570;50.854;13.778;2023-07-31T08:50:16;18.30;99.90
18876;DHT22;9570;50.854;13.778;2023-07-31T08:52:41;18.30;99.90
18876;DHT22;9570;50.854;13.778;2023-07-31T08:55:07;18.40;99.90
18876;DHT22;9570;50.854;13.778;2023-07-31T08:57:36;18.40;99.90
18876;DHT22;9570;50.854;13.778;2023-07-31T09:00:03;18.30;99.90
18876;DHT22;9570;50.854;13.778;2023-07-31T09:02:41;18.30;99.90
18876;DHT22;9570;50.854;13.778;2023-07-31T09:05:10;18.30;99.90
18876;DHT22;9570;50.854;13.778;2023-07-31T09:07:37;18.40;99.90
18876;DHT22;9570;50.854;13.778;2023-07-31T09:10:03;18.30;99.90
18876;DHT22;9570;50.854;13.778;2023-07-31T09:12:29;18.30;99.90
18876;DHT22;9570;50.854;13.778;2023-07-31T09:14:56;18.30;99.90
18876;DHT22;9570;50.854;13.778;2023-07-31T09:17:29;18.30;99.90
18876;DHT22;9570;50.854;13.778;2023-07-31T09:19:56;18.30;99.90
18876;DHT22;9570;50.854;13.778;2023-07-31T09:22:39;18.30;99.90
18876;DHT22;9570;50.854;13.778;2023-07-31T09:25:25;18.40;99.90
18876;DHT22;9570;50.854;13.778;2023-07-31T09:27:54;18.40;99.90
18876;DHT22;9570;50.854;13.778;2023-07-31T09:30:21;18.30;99.90
18876;DHT22;9570;50.854;13.778;2023-07-31T09:32:48;18.30;99.90
18876;DHT22;9570;50.854;13.778;2023-07-31T09:35:21;18.30;99.90
18876;DHT22;9570;50.854;13.778;2023-07-31T09:37:55;18.30;99.90
18876;DHT22;9570;50.854;13.778;2023-07-31T09:40:27;18.30;99.90
18876;DHT22;9570;50.854;13.778;2023-07-31T09:42:57;18.30;99.90
18876;DHT22;9570;50.854;13.778;2023-07-31T09:45:24;18.40;99.90
18876;DHT22;9570;50.854;13.778;2023-07-31T09:47:50;18.50;99.90
18876;DHT22;9570;50.854;13.778;2023-07-31T09:50:15;18.40;99.90
18876;DHT22;9570;50.854;13.778;2023-07-31T09:52:44;18.40;99.90
18876;DHT22;9570;50.854;13.778;2023-07-31T09:55:09;18.50;99.90
18876;DHT22;9570;50.854;13.778;2023-07-31T09:57:41;18.50;99.90
18876;DHT22;9570;50.854;13.778;2023-07-31T10:00:10;18.50;99.90
18876;DHT22;9570;50.854;13.778;2023-07-31T10:02:37;18.50;99.90
18876;DHT22;9570;50.854;13.778;2023-07-31T10:05:03;18.60;99.90
18876;DHT22;9570;50.854;13.778;2023-07-31T10:07:30;18.70;99.90
18876;DHT22;9570;50.854;13.778;2023-07-31T10:10:00;18.60;99.90
18876;DHT22;9570;50.854;13.778;2023-07-31T10:12:27;18.60;99.90
18876;DHT22;9570;50.854;13.778;2023-07-31T10:14:56;18.70;99.90
18876;DHT22;9570;50.854;13.778;2023-07-31T10:17:23;18.70;99.90
18876;DHT22;9570;50.854;13.778;2023-07-31T10:19:49;18.80;99.90
18876;DHT22;9570;50.854;13.778;2023-07-31T10:22:15;18.70;99.90
18876;DHT22;9570;50.854;13.778;2023-07-31T10:24:45;18.70;99.90
18876;DHT22;9570;50.854;13.778;2023-07-31T10:27:11;18.90;99.90
18876;DHT22;9570;50.854;13.778;2023-07-31T10:29:38;19.00;99.90
18876;DHT22;9570;50.854;13.778;2023-07-31T10:32:05;19.00;99.90
18876;DHT22;9570;50.854;13.778;2023-07-31T10:34:38;19.10;99.90
18876;DHT22;9570;50.854;13.778;2023-07-31T10:37:24;19.10;99.90
18876;DHT22;9570;50.854;13.778;2023-07-31T10:42:37;19.40;99.90
18876;DHT22;9570;50.854;13.778;2023-07-31T10:45:04;19.50;99.90
18876;DHT22;9570;50.854;13.778;2023-07-31T10:47:31;19.50;99.90
18876;DHT22;9570;50.854;13.778;2023-07-31T10:52:38;19.60;99.90
18876;DHT22;9570;50.854;13.778;2023-07-31T10:55:15;19.70;99.90
18876;DHT22;9570;50.854;13.778;2023-07-31T10:57:44;19.80;99.90
18876;DHT22;9570;50.854;13.778;2023-07-31T11:00:27;19.90;99.90
18876;DHT22;9570;50.854;13.778;2023-07-31T11:03:14;20.00;99.90
18876;DHT22;9570;50.854;13.778;2023-07-31T11:08:19;20.40;99.90
18876;DHT22;9570;50.854;13.778;2023-07-31T11:10:47;20.50;99.90
18876;DHT22;9570;50.854;13.778;2023-07-31T11:13:13;20.60;99.90
18876;DHT22;9570;50.854;13.778;2023-07-31T11:15:38;20.70;99.90
18876;DHT22;9570;50.854;13.778;2023-07-31T11:18:04;20.70;99.90
18876;DHT22;9570;50.854;13.778;2023-07-31T11:20:32;20.70;99.90
18876;DHT22;9570;50.854;13.778;2023-07-31T11:23:06;20.80;99.90
18876;DHT22;9570;50.854;13.778;2023-07-31T11:25:32;20.70;99.90
18876;DHT22;9570;50.854;13.778;2023-07-31T11:28:10;20.70;99.90
18876;DHT22;9570;50.854;13.778;2023-07-31T11:30:36;20.60;99.90
18876;DHT22;9570;50.854;13.778;2023-07-31T11:33:04;20.60;99.90
18876;DHT22;9570;50.854;13.778;2023-07-31T11:38:09;20.40;99.90
18876;DHT22;9570;50.854;13.778;2023-07-31T11:40:44;20.30;99.90
18876;DHT22;9570;50.854;13.778;2023-07-31T11:43:10;20.40;99.90
18876;DHT22;9570;50.854;13.778;2023-07-31T11:45:40;20.30;99.90
18876;DHT22;9570;50.854;13.778;2023-07-31T11:48:05;20.40;99.90
18876;DHT22;9570;50.854;13.778;2023-07-31T11:50:33;20.50;99.90
18876;DHT22;9570;50.854;13.778;2023-07-31T11:53:06;20.40;99.90
18876;DHT22;9570;50.854;13.778;2023-07-31T11:55:33;20.60;99.90
18876;DHT22;9570;50.854;13.778;2023-07-31T11:57:59;20.70;99.90
18876;DHT22;9570;50.854;13.778;2023-07-31T12:00:25;20.90;99.90
18876;DHT22;9570;50.854;13.778;2023-07-31T12:02:51;21.00;99.90
18876;DHT22;9570;50.854;13.778;2023-07-31T12:05:17;20.90;99.90
18876;DHT22;9570;50.854;13.778;2023-07-31T12:07:53;20.90;99.90
18876;DHT22;9570;50.854;13.778;2023-07-31T12:10:32;20.80;99.90
18876;DHT22;9570;50.854;13.778;2023-07-31T12:13:09;20.80;99.90
18876;DHT22;9570;50.854;13.778;2023-07-31T12:15:45;20.90;99.90
18876;DHT22;9570;50.854;13.778;2023-07-31T12:18:14;21.00;99.90
18876;DHT22;9570;50.854;13.778;2023-07-31T12:20:44;21.10;99.90
18876;DHT22;9570;50.854;13.778;2023-07-31T12:23:14;21.10;99.90
18876;DHT22;9570;50.854;13.778;2023-07-31T12:25:40;21.00;99.90
18876;DHT22;9570;50.854;13.778;2023-07-31T12:28:07;21.10;99.90
18876;DHT22;9570;50.854;13.778;2023-07-31T12:30:37;21.10;99.90
18876;DHT22;9570;50.854;13.778;2023-07-31T12:33:14;21.20;99.90
18876;DHT22;9570;50.854;13.778;2023-07-31T12:35:46;21.20;99.90
18876;DHT22;9570;50.854;13.778;2023-07-31T12:38:13;21.20;99.90
18876;DHT22;9570;50.854;13.778;2023-07-31T12:40:39;21.20;99.90
18876;DHT22;9570;50.854;13.778;2023-07-31T12:43:06;21.20;99.90
18876;DHT22;9570;50.854;13.778;2023-07-31T12:45:32;21.10;99.90
18876;DHT22;9570;50.854;13.778;2023-07-31T12:48:01;21.20;99.90
18876;DHT22;9570;50.854;13.778;2023-07-31T12:50:26;21.10;99.90
18876;DHT22;9570;50.854;13.778;2023-07-31T12:52:55;21.10;99.90
18876;DHT22;9570;50.854;13.778;2023-07-31T12:55:21;21.20;99.90
18876;DHT22;9570;50.854;13.778;2023-07-31T12:57:47;21.30;99.90
18876;DHT22;9570;50.854;13.778;2023-07-31T13:00:13;21.40;99.90
18876;DHT22;9570;50.854;13.778;2023-07-31T13:02:39;21.40;99.90
18876;DHT22;9570;50.854;13.778;2023-07-31T13:05:05;21.40;99.90
18876;DHT22;9570;50.854;13.778;2023-07-31T13:07:30;21.50;99.90
18876;DHT22;9570;50.854;13.778;2023-07-31T13:09:56;21.60;99.90
18876;DHT22;9570;50.854;13.778;2023-07-31T13:12:21;21.80;99.90
18876;DHT22;9570;50.854;13.778;2023-07-31T13:14:47;22.00;99.90
18876;DHT22;9570;50.854;13.778;2023-07-31T13:17:12;21.90;99.90
18876;DHT22;9570;50.854;13.778;2023-07-31T13:19:38;21.80;99.90
18876;DHT22;9570;50.854;13.778;2023-07-31T13:22:03;21.80;99.90
18876;DHT22;9570;50.854;13.778;2023-07-31T13:24:29;21.70;99.90
18876;DHT22;9570;50.854;13.778;2023-07-31T13:26:56;21.70;99.90
18876;DHT22;9570;50.854;13.778;2023-07-31T13:29:21;21.60;99.90
18876;DHT22;9570;50.854;13.778;2023-07-31T13:31:47;21.60;99.90
18876;DHT22;9570;50.854;13.778;2023-07-31T13:34:13;21.50;99.90
18876;DHT22;9570;50.854;13.778;2023-07-31T13:36:38;21.50;99.90
18876;DHT22;9570;50.854;13.778;2023-07-31T13:39:04;21.50;99.90
18876;DHT22;9570;50.854;13.778;2023-07-31T13:41:29;21.40;99.90
18876;DHT22;9570;50.854;13.778;2023-07-31T13:43:55;21.40;99.90
18876;DHT22;9570;50.854;13.778;2023-07-31T13:46:20;21.40;99.90
18876;DHT22;9570;50.854;13.778;2023-07-31T13:48:46;21.40;99.90
18876;DHT22;9570;50.854;13.778;2023-07-31T13:51:11;21.40;99.90
18876;DHT22;9570;50.854;13.778;2023-07-31T13:53:37;21.40;99.90
18876;DHT22;9570;50.854;13.778;2023-07-31T13:56:02;21.50;99.90
18876;DHT22;9570;50.854;13.778;2023-07-31T13:58:28;21.60;99.90
18876;DHT22;9570;50.854;13.778;2023-07-31T14:00:53;21.70;99.90
18876;DHT22;9570;50.854;13.778;2023-07-31T14:03:19;21.80;99.90
18876;DHT22;9570;50.854;13.778;2023-07-31T14:05:44;21.90;99.90
18876;DHT22;9570;50.854;13.778;2023-07-31T14:08:10;21.90;99.90
18876;DHT22;9570;50.854;13.778;2023-07-31T14:10:35;22.00;99.90
18876;DHT22;9570;50.854;13.778;2023-07-31T14:13:01;21.90;99.90
18876;DHT22;9570;50.854;13.778;2023-07-31T14:15:26;21.80;99.90
18876;DHT22;9570;50.854;13.778;2023-07-31T14:17:52;21.90;99.90
18876;DHT22;9570;50.854;13.778;2023-07-31T14:20:17;21.90;99.90
18876;DHT22;9570;50.854;13.778;2023-07-31T14:22:43;21.90;99.90
18876;DHT22;9570;50.854;13.778;2023-07-31T14:25:08;21.90;99.90
18876;DHT22;9570;50.854;13.778;2023-07-31T14:27:36;21.80;99.90
18876;DHT22;9570;50.854;13.778;2023-07-31T14:30:01;21.80;99.90
18876;DHT22;9570;50.854;13.778;2023-07-31T14:32:27;21.80;99.90
18876;DHT22;9570;50.854;13.778;2023-07-31T14:34:52;21.90;99.90
18876;DHT22;9570;50.854;13.778;2023-07-31T14:37:19;22.00;99.90
18876;DHT22;9570;50.854;13.778;2023-07-31T14:39:45;22.00;99.90
18876;DHT22;9570;50.854;13.778;2023-07-31T14:42:10;22.00;99.90
18876;DHT22;9570;50.854;13.778;2023-07-31T14:44:36;22.00;99.90
18876;DHT22;9570;50.854;13.778;2023-07-31T14:47:01;22.00;99.90
18876;DHT22;9570;50.854;13.778;2023-07-31T14:49:27;22.00;99.90
18876;DHT22;9570;50.854;13.778;2023-07-31T14:51:54;21.90;99.90
18876;DHT22;9570;50.854;13.778;2023-07-31T14:54:19;21.70;99.90
18876;DHT22;9570;50.854;13.778;2023-07-31T14:56:45;21.70;99.90
18876;DHT22;9570;50.854;13.778;2023-07-31T14:59:11;21.70;99.90
18876;DHT22;9570;50.854;13.778;2023-07-31T15:01:37;21.70;99.90
18876;DHT22;9570;50.854;13.778;2023-07-31T15:04:02;21.70;99.90
18876;DHT22;9570;50.854;13.778;2023-07-31T15:06:28;21.70;99.90
18876;DHT22;9570;50.854;13.778;2023-07-31T15:08:53;21.80;99.90
18876;DHT22;9570;50.854;13.778;2023-07-31T15:11:19;22.00;99.90
18876;DHT22;9570;50.854;13.778;2023-07-31T15:13:44;22.00;99.90
18876;DHT22;9570;50.854;13.778;2023-07-31T15:16:10;21.90;99.90
18876;DHT22;9570;50.854;13.778;2023-07-31T15:18:35;21.80;99.90
18876;DHT22;9570;50.854;13.778;2023-07-31T15:21:01;21.70;99.90
18876;DHT22;9570;50.854;13.778;2023-07-31T15:23:26;21.60;99.90
18876;DHT22;9570;50.854;13.778;2023-07-31T15:25:52;21.60;99.90
18876;DHT22;9570;50.854;13.778;2023-07-31T15:28:18;21.60;99.90
18876;DHT22;9570;50.854;13.778;2023-07-31T15:30:44;21.60;99.90
18876;DHT22;9570;50.854;13.778;2023-07-31T15:33:09;21.60;99.90
18876;DHT22;9570;50.854;13.778;2023-07-31T15:35:35;21.50;99.90
18876;DHT22;9570;50.854;13.778;2023-07-31T15:38:00;21.60;99.90
18876;DHT22;9570;50.854;13.778;2023-07-31T15:40:26;21.70;99.90